sensor_id;sensor_type;location;lat;lon;timestamp;pressure;altitude;pressure_sealevel;temperature;humidity
20628;BME280;10473;42.734;24.258;2023-10-19T00:00:48;91979.00;;;10.27;71.99
20628;BME280;10473;42.734;24.258;2023-10-19T00:03:17;91980.94;;;10.33;71.26
20628;BME280;10473;42.734;24.258;2023-10-19T00:05:47;91977.19;;;10.34;71.19
20628;BME280;10473;42.734;24.258;2023-10-19T00:08:13;91969.94;;;10.28;71.20
20628;BME280;10473;42.734;24.258;2023-10-19T00:10:48;91967.19;;;10.21;72.18
20628;BME280;10473;42.734;24.258;2023-10-19T00:13:28;91958.44;;;10.17;71.94
20628;BME280;10473;42.734;24.258;2023-10-19T00:15:56;91955.88;;;10.24;71.42
20628;BME280;10473;42.734;24.258;2023-10-19T00:18:23;91962.66;;;10.21;70.86
20628;BME280;10473;42.734;24.258;2023-10-19T00:20:54;91961.50;;;10.19;70.65
20628;BME280;10473;42.734;24.258;2023-10-19T00:23:26;91950.03;;;10.08;70.70
20628;BME280;10473;42.734;24.258;2023-10-19T00:25:57;91947.72;;;10.06;70.82
20628;BME280;10473;42.734;24.258;2023-10-19T00:28:26;91947.31;;;10.04;70.50
20628;BME280;10473;42.734;24.258;2023-10-19T00:30:54;91944.31;;;10.06;70.60
20628;BME280;10473;42.734;24.258;2023-10-19T00:33:30;91944.31;;;10.06;69.93
20628;BME280;10473;42.734;24.258;2023-10-19T00:36:00;91929.38;;;9.94;69.83
20628;BME280;10473;42.734;24.258;2023-10-19T00:38:33;91927.13;;;9.93;70.19
20628;BME280;10473;42.734;24.258;2023-10-19T00:41:14;91923.53;;;9.78;70.33
20628;BME280;10473;42.734;24.258;2023-10-19T00:43:47;91924.97;;;9.72;70.62
20628;BME280;10473;42.734;24.258;2023-10-19T00:46:17;91924.19;;;9.72;69.84
20628;BME280;10473;42.734;24.258;2023-10-19T00:48:49;91931.38;;;9.71;69.56
20628;BME280;10473;42.734;24.258;2023-10-19T00:51:21;91929.72;;;9.60;70.39
20628;BME280;10473;42.734;24.258;2023-10-19T00:54:09;91929.34;;;9.61;70.09
20628;BME280;10473;42.734;24.258;2023-10-19T00:56:43;91932.25;;;9.53;69.90
20628;BME280;10473;42.734;24.258;2023-10-19T00:59:17;91923.84;;;9.44;70.50
20628;BME280;10473;42.734;24.258;2023-10-19T01:01:51;91926.66;;;9.32;70.63
20628;BME280;10473;42.734;24.258;2023-10-19T01:04:22;91922.09;;;9.29;71.09
20628;BME280;10473;42.734;24.258;2023-10-19T01:06:53;91911.53;;;9.29;70.66
20628;BME280;10473;42.734;24.258;2023-10-19T01:09:31;91919.84;;;9.31;70.66
20628;BME280;10473;42.734;24.258;2023-10-19T01:12:01;91916.31;;;9.20;71.13
20628;BME280;10473;42.734;24.258;2023-10-19T01:14:32;91902.25;;;9.16;71.58
20628;BME280;10473;42.734;24.258;2023-10-19T01:17:01;91903.81;;;9.20;71.11
20628;BME280;10473;42.734;24.258;2023-10-19T01:19:33;91901.50;;;9.15;71.23
20628;BME280;10473;42.734;24.258;2023-10-19T01:22:03;91899.28;;;9.17;70.73
20628;BME280;10473;42.734;24.258;2023-10-19T01:24:35;91903.47;;;8.96;71.73
20628;BME280;10473;42.734;24.258;2023-10-19T01:27:08;91903.13;;;8.97;71.78
20628;BME280;10473;42.734;24.258;2023-10-19T01:29:36;91898.88;;;8.93;71.82
20628;BME280;10473;42.734;24.258;2023-10-19T01:32:07;91901.88;;;8.91;72.11
20628;BME280;10473;42.734;24.258;2023-10-19T01:34:35;91904.94;;;8.93;72.00
20628;BME280;10473;42.734;24.258;2023-10-19T01:37:03;91906.81;;;8.93;71.72
20628;BME280;10473;42.734;24.258;2023-10-19T01:39:32;91904.91;;;8.90;71.59
20628;BME280;10473;42.734;24.258;2023-10-19T01:42:00;91900.72;;;8.89;71.49
20628;BME280;10473;42.734;24.258;2023-10-19T01:44:30;91906.41;;;8.91;71.46
20628;BME280;10473;42.734;24.258;2023-10-19T01:46:57;91919.31;;;8.96;71.18
20628;BME280;10473;42.734;24.258;2023-10-19T01:49:27;91915.88;;;8.92;70.89
20628;BME280;10473;42.734;24.258;2023-10-19T01:51:54;91919.75;;;8.75;71.65
20628;BME280;10473;42.734;24.258;2023-10-19T01:54:23;91914.63;;;8.86;71.30
20628;BME280;10473;42.734;24.258;2023-10-19T01:56:52;91909.91;;;8.72;71.93
20628;BME280;10473;42.734;24.258;2023-10-19T01:59:24;91911.19;;;8.82;71.20
20628;BME280;10473;42.734;24.258;2023-10-19T02:01:55;91907.59;;;8.71;71.08
20628;BME280;10473;42.734;24.258;2023-10-19T02:04:24;91916.81;;;8.80;70.36
20628;BME280;10473;42.734;24.258;2023-10-19T02:06:52;91914.00;;;8.70;70.78
20628;BME280;10473;42.734;24.258;2023-10-19T02:09:19;91920.34;;;8.65;70.90
20628;BME280;10473;42.734;24.258;2023-10-19T02:11:54;91915.00;;;8.62;71.11
20628;BME280;10473;42.734;24.258;2023-10-19T02:14:24;91915.00;;;8.62;70.85
20628;BME280;10473;42.734;24.258;2023-10-19T02:16:54;91919.06;;;8.56;71.13
20628;BME280;10473;42.734;24.258;2023-10-19T02:19:24;91917.50;;;8.32;71.14
20628;BME280;10473;42.734;24.258;2023-10-19T02:21:53;91915.31;;;8.38;70.98
20628;BME280;10473;42.734;24.258;2023-10-19T02:24:20;91913.13;;;8.40;71.04
20628;BME280;10473;42.734;24.258;2023-10-19T02:26:50;91912.84;;;8.26;71.58
20628;BME280;10473;42.734;24.258;2023-10-19T02:29:17;91923.41;;;8.07;71.98
20628;BME280;10473;42.734;24.258;2023-10-19T02:31:47;91923.97;;;7.97;72.88
20628;BME280;10473;42.734;24.258;2023-10-19T02:34:14;91924.53;;;8.06;73.19
20628;BME280;10473;42.734;24.258;2023-10-19T02:36:43;91919.94;;;8.03;72.88
20628;BME280;10473;42.734;24.258;2023-10-19T02:39:12;91928.06;;;7.94;72.83
20628;BME280;10473;42.734;24.258;2023-10-19T02:41:42;91924.31;;;7.76;73.65
20628;BME280;10473;42.734;24.258;2023-10-19T02:44:13;91927.22;;;7.90;73.24
20628;BME280;10473;42.734;24.258;2023-10-19T02:46:51;91921.03;;;8.02;72.78
20628;BME280;10473;42.734;24.258;2023-10-19T02:49:22;91925.09;;;7.96;73.31
20628;BME280;10473;42.734;24.258;2023-10-19T02:51:53;91925.16;;;7.99;72.41
20628;BME280;10473;42.734;24.258;2023-10-19T02:54:21;91926.25;;;7.98;72.93
20628;BME280;10473;42.734;24.258;2023-10-19T02:56:51;91930.69;;;7.94;72.16
20628;BME280;10473;42.734;24.258;2023-10-19T02:59:21;91925.97;;;8.03;71.64
20628;BME280;10473;42.734;24.258;2023-10-19T03:01:50;91933.81;;;8.00;71.94
20628;BME280;10473;42.734;24.258;2023-10-19T03:04:20;91930.06;;;8.01;71.49
20628;BME280;10473;42.734;24.258;2023-10-19T03:06:47;91940.97;;;7.99;71.33
20628;BME280;10473;42.734;24.258;2023-10-19T03:09:16;91934.53;;;7.97;71.96
20628;BME280;10473;42.734;24.258;2023-10-19T03:11:50;91928.69;;;7.88;72.36
20628;BME280;10473;42.734;24.258;2023-10-19T03:14:19;91916.63;;;7.87;71.85
20628;BME280;10473;42.734;24.258;2023-10-19T03:16:46;91922.44;;;7.96;71.69
20628;BME280;10473;42.734;24.258;2023-10-19T03:19:15;91922.72;;;7.91;72.16
20628;BME280;10473;42.734;24.258;2023-10-19T03:21:42;91928.69;;;7.88;72.04
20628;BME280;10473;42.734;24.258;2023-10-19T03:24:11;91930.63;;;7.91;71.65
20628;BME280;10473;42.734;24.258;2023-10-19T03:26:49;91926.44;;;7.90;72.13
20628;BME280;10473;42.734;24.258;2023-10-19T03:29:20;91924.31;;;7.95;71.48
20628;BME280;10473;42.734;24.258;2023-10-19T03:31:51;91925.97;;;7.84;71.85
20628;BME280;10473;42.734;24.258;2023-10-19T03:34:21;91929.47;;;7.88;71.42
20628;BME280;10473;42.734;24.258;2023-10-19T03:36:50;91921.44;;;7.85;71.70
20628;BME280;10473;42.734;24.258;2023-10-19T03:39:18;91923.75;;;7.86;71.20
20628;BME280;10473;42.734;24.258;2023-10-19T03:41:47;91920.38;;;7.86;71.59
20628;BME280;10473;42.734;24.258;2023-10-19T03:44:17;91920.38;;;7.86;72.07
20628;BME280;10473;42.734;24.258;2023-10-19T03:46:51;91917.22;;;7.80;72.55
20628;BME280;10473;42.734;24.258;2023-10-19T03:49:23;91914.25;;;7.82;72.21
20628;BME280;10473;42.734;24.258;2023-10-19T03:51:56;91916.06;;;7.78;71.92
20628;BME280;10473;42.734;24.258;2023-10-19T03:54:29;91911.63;;;7.82;72.30
20628;BME280;10473;42.734;24.258;2023-10-19T03:56:59;91900.44;;;7.69;72.61
20628;BME280;10473;42.734;24.258;2023-10-19T03:59:32;91899.94;;;7.64;72.36
20628;BME280;10473;42.734;24.258;2023-10-19T04:02:00;91899.72;;;7.72;72.22
20628;BME280;10473;42.734;24.258;2023-10-19T04:04:37;91902.56;;;7.64;72.49
20628;BME280;10473;42.734;24.258;2023-10-19T04:07:05;91903.25;;;7.61;73.44
20628;BME280;10473;42.734;24.258;2023-10-19T04:09:40;91902.00;;;7.55;73.31
20628;BME280;10473;42.734;24.258;2023-10-19T04:12:23;91902.84;;;7.59;72.99
20628;BME280;10473;42.734;24.258;2023-10-19T04:14:51;91898.97;;;7.53;74.05
20628;BME280;10473;42.734;24.258;2023-10-19T04:17:22;91891.91;;;7.57;73.79
20628;BME280;10473;42.734;24.258;2023-10-19T04:19:52;91873.72;;;7.52;73.66
20628;BME280;10473;42.734;24.258;2023-10-19T04:22:21;91901.47;;;7.65;72.60
20628;BME280;10473;42.734;24.258;2023-10-19T04:24:53;91899.59;;;7.65;73.62
20628;BME280;10473;42.734;24.258;2023-10-19T04:27:21;91893.56;;;7.65;72.82
20628;BME280;10473;42.734;24.258;2023-10-19T04:29:49;91888.28;;;7.65;73.14
20628;BME280;10473;42.734;24.258;2023-10-19T04:32:18;91885.31;;;7.66;73.62
20628;BME280;10473;42.734;24.258;2023-10-19T04:34:53;91894.47;;;7.72;73.50
20628;BME280;10473;42.734;24.258;2023-10-19T04:37:21;91891.06;;;7.72;73.10
20628;BME280;10473;42.734;24.258;2023-10-19T04:39:50;91893.72;;;7.72;73.52
20628;BME280;10473;42.734;24.258;2023-10-19T04:42:18;91884.06;;;7.79;73.00
20628;BME280;10473;42.734;24.258;2023-10-19T04:44:49;91884.06;;;7.79;73.44
20628;BME280;10473;42.734;24.258;2023-10-19T04:47:16;91890.09;;;7.80;72.99
20628;BME280;10473;42.734;24.258;2023-10-19T04:49:44;91889.00;;;7.81;73.52
20628;BME280;10473;42.734;24.258;2023-10-19T04:52:16;91884.97;;;7.87;73.55
20628;BME280;10473;42.734;24.258;2023-10-19T04:54:44;91888.00;;;7.89;73.22
20628;BME280;10473;42.734;24.258;2023-10-19T04:57:12;91885.09;;;7.94;72.60
20628;BME280;10473;42.734;24.258;2023-10-19T04:59:41;91893.44;;;7.96;73.12
20628;BME280;10473;42.734;24.258;2023-10-19T05:02:11;91886.75;;;8.02;72.89
20628;BME280;10473;42.734;24.258;2023-10-19T05:04:39;91890.63;;;8.08;73.30
20628;BME280;10473;42.734;24.258;2023-10-19T05:07:08;91882.03;;;8.11;73.20
20628;BME280;10473;42.734;24.258;2023-10-19T05:09:40;91882.53;;;8.20;73.47
20628;BME280;10473;42.734;24.258;2023-10-19T05:12:07;91883.41;;;8.24;73.55
20628;BME280;10473;42.734;24.258;2023-10-19T05:14:38;91894.63;;;8.40;73.36
20628;BME280;10473;42.734;24.258;2023-10-19T05:17:08;91886.72;;;8.62;73.44
20628;BME280;10473;42.734;24.258;2023-10-19T05:19:37;91889.75;;;8.87;73.67
20628;BME280;10473;42.734;24.258;2023-10-19T05:22:06;91886.66;;;9.07;73.62
20628;BME280;10473;42.734;24.258;2023-10-19T05:24:34;91873.97;;;9.16;71.74
20628;BME280;10473;42.734;24.258;2023-10-19T05:27:03;91882.22;;;9.41;70.39
20628;BME280;10473;42.734;24.258;2023-10-19T05:29:31;91890.44;;;9.62;70.31
20628;BME280;10473;42.734;24.258;2023-10-19T05:32:00;91898.69;;;9.86;69.54
20628;BME280;10473;42.734;24.258;2023-10-19T05:34:28;91895.91;;;10.05;69.63
20628;BME280;10473;42.734;24.258;2023-10-19T05:36:58;91899.13;;;10.21;68.98
20628;BME280;10473;42.734;24.258;2023-10-19T05:39:28;91900.16;;;10.50;69.92
20628;BME280;10473;42.734;24.258;2023-10-19T05:41:57;91906.13;;;10.83;68.68
20628;BME280;10473;42.734;24.258;2023-10-19T05:44:28;91913.63;;;11.18;68.13
20628;BME280;10473;42.734;24.258;2023-10-19T05:46:56;91905.81;;;11.39;66.20
20628;BME280;10473;42.734;24.258;2023-10-19T05:49:24;91911.75;;;10.75;65.35
20628;BME280;10473;42.734;24.258;2023-10-19T05:51:52;91916.50;;;10.99;66.79
20628;BME280;10473;42.734;24.258;2023-10-19T05:54:20;91916.94;;;11.58;67.04
20628;BME280;10473;42.734;24.258;2023-10-19T05:56:49;91920.22;;;11.99;63.72
20628;BME280;10473;42.734;24.258;2023-10-19T05:59:18;91920.00;;;12.39;63.86
20628;BME280;10473;42.734;24.258;2023-10-19T06:01:49;91927.69;;;12.79;62.86
20628;BME280;10473;42.734;24.258;2023-10-19T06:04:18;91927.78;;;13.14;62.36
20628;BME280;10473;42.734;24.258;2023-10-19T06:06:46;91918.25;;;13.51;60.16
20628;BME280;10473;42.734;24.258;2023-10-19T06:09:14;91913.63;;;13.90;58.96
20628;BME280;10473;42.734;24.258;2023-10-19T06:11:43;91914.31;;;14.26;58.57
20628;BME280;10473;42.734;24.258;2023-10-19T06:14:12;91921.50;;;14.36;57.62
20628;BME280;10473;42.734;24.258;2023-10-19T06:16:39;91924.66;;;14.89;57.43
20628;BME280;10473;42.734;24.258;2023-10-19T06:19:08;91917.50;;;15.37;57.49
20628;BME280;10473;42.734;24.258;2023-10-19T06:21:36;91920.75;;;15.58;54.05
20628;BME280;10473;42.734;24.258;2023-10-19T06:24:05;91913.78;;;15.68;53.60
20628;BME280;10473;42.734;24.258;2023-10-19T06:26:33;91919.63;;;15.05;54.63
20628;BME280;10473;42.734;24.258;2023-10-19T06:29:01;91932.69;;;14.82;55.38
20628;BME280;10473;42.734;24.258;2023-10-19T06:31:30;91926.78;;;15.11;55.82
20628;BME280;10473;42.734;24.258;2023-10-19T06:33:57;91925.81;;;15.46;55.20
20628;BME280;10473;42.734;24.258;2023-10-19T06:36:28;91926.59;;;15.43;55.03
20628;BME280;10473;42.734;24.258;2023-10-19T06:38:56;91929.94;;;15.54;55.24
20628;BME280;10473;42.734;24.258;2023-10-19T06:41:24;91929.34;;;15.80;55.18
20628;BME280;10473;42.734;24.258;2023-10-19T06:43:51;91929.91;;;15.98;54.98
20628;BME280;10473;42.734;24.258;2023-10-19T06:46:19;91928.56;;;15.39;54.97
20628;BME280;10473;42.734;24.258;2023-10-19T06:48:47;91917.44;;;15.44;55.12
20628;BME280;10473;42.734;24.258;2023-10-19T06:51:17;91927.31;;;15.47;54.71
20628;BME280;10473;42.734;24.258;2023-10-19T06:53:47;91922.06;;;15.80;55.09
20628;BME280;10473;42.734;24.258;2023-10-19T06:56:15;91926.50;;;15.97;54.44
20628;BME280;10473;42.734;24.258;2023-10-19T06:58:43;91921.41;;;16.10;53.77
20628;BME280;10473;42.734;24.258;2023-10-19T07:01:10;91913.88;;;15.98;53.99
20628;BME280;10473;42.734;24.258;2023-10-19T07:03:39;91921.28;;;16.20;53.37
20628;BME280;10473;42.734;24.258;2023-10-19T07:06:07;91925.28;;;16.05;53.24
20628;BME280;10473;42.734;24.258;2023-10-19T07:08:39;91926.44;;;15.64;53.69
20628;BME280;10473;42.734;24.258;2023-10-19T07:11:09;91927.69;;;14.91;56.17
20628;BME280;10473;42.734;24.258;2023-10-19T07:13:38;91924.63;;;14.96;56.23
20628;BME280;10473;42.734;24.258;2023-10-19T07:16:06;91936.00;;;15.03;56.45
20628;BME280;10473;42.734;24.258;2023-10-19T07:18:38;91922.31;;;14.98;56.06
20628;BME280;10473;42.734;24.258;2023-10-19T07:21:06;91926.34;;;14.55;56.94
20628;BME280;10473;42.734;24.258;2023-10-19T07:23:35;91931.41;;;14.32;57.92
20628;BME280;10473;42.734;24.258;2023-10-19T07:26:04;91935.84;;;14.63;57.36
20628;BME280;10473;42.734;24.258;2023-10-19T07:28:33;91925.53;;;15.30;57.06
20628;BME280;10473;42.734;24.258;2023-10-19T07:31:01;91930.50;;;15.79;53.90
20628;BME280;10473;42.734;24.258;2023-10-19T07:33:29;91929.03;;;16.11;54.01
20628;BME280;10473;42.734;24.258;2023-10-19T07:35:57;91940.06;;;17.10;52.93
20628;BME280;10473;42.734;24.258;2023-10-19T07:38:27;91930.88;;;17.64;49.66
20628;BME280;10473;42.734;24.258;2023-10-19T07:40:57;91919.22;;;18.17;50.73
20628;BME280;10473;42.734;24.258;2023-10-19T07:43:25;91922.78;;;18.53;49.13
20628;BME280;10473;42.734;24.258;2023-10-19T07:45:55;91917.69;;;18.39;46.83
20628;BME280;10473;42.734;24.258;2023-10-19T07:48:22;91913.25;;;18.29;46.92
20628;BME280;10473;42.734;24.258;2023-10-19T07:50:51;91916.66;;;18.33;47.55
20628;BME280;10473;42.734;24.258;2023-10-19T07:53:19;91914.25;;;19.13;46.67
20628;BME280;10473;42.734;24.258;2023-10-19T07:55:47;91918.09;;;19.12;47.89
20628;BME280;10473;42.734;24.258;2023-10-19T07:58:15;91909.78;;;19.90;44.72
20628;BME280;10473;42.734;24.258;2023-10-19T08:00:43;91907.50;;;20.49;43.20
20628;BME280;10473;42.734;24.258;2023-10-19T08:03:15;91904.66;;;20.68;43.43
20628;BME280;10473;42.734;24.258;2023-10-19T08:05:46;91914.25;;;21.60;43.08
20628;BME280;10473;42.734;24.258;2023-10-19T08:08:13;91916.59;;;22.08;39.65
20628;BME280;10473;42.734;24.258;2023-10-19T08:10:41;91902.00;;;22.52;38.34
20628;BME280;10473;42.734;24.258;2023-10-19T08:13:09;91910.69;;;23.42;39.48
20628;BME280;10473;42.734;24.258;2023-10-19T08:15:39;91910.38;;;23.80;37.42
20628;BME280;10473;42.734;24.258;2023-10-19T08:18:06;91908.47;;;23.50;36.41
20628;BME280;10473;42.734;24.258;2023-10-19T08:20:35;91909.56;;;23.61;36.51
20628;BME280;10473;42.734;24.258;2023-10-19T08:23:03;91909.94;;;23.81;36.19
20628;BME280;10473;42.734;24.258;2023-10-19T08:25:31;91903.00;;;24.56;35.28
20628;BME280;10473;42.734;24.258;2023-10-19T08:27:59;91915.63;;;25.31;35.28
20628;BME280;10473;42.734;24.258;2023-10-19T08:30:27;91905.84;;;25.66;32.88
20628;BME280;10473;42.734;24.258;2023-10-19T08:32:55;91904.03;;;25.72;32.87
20628;BME280;10473;42.734;24.258;2023-10-19T08:35:24;91901.63;;;26.30;33.96
20628;BME280;10473;42.734;24.258;2023-10-19T08:37:54;91905.41;;;26.56;32.04
20628;BME280;10473;42.734;24.258;2023-10-19T08:40:24;91895.88;;;26.61;31.66
20628;BME280;10473;42.734;24.258;2023-10-19T08:42:53;91900.91;;;25.56;33.40
20628;BME280;10473;42.734;24.258;2023-10-19T08:45:21;91903.81;;;26.17;32.62
20628;BME280;10473;42.734;24.258;2023-10-19T08:47:53;91906.72;;;26.61;32.18
20628;BME280;10473;42.734;24.258;2023-10-19T08:50:23;91902.31;;;27.88;31.95
20628;BME280;10473;42.734;24.258;2023-10-19T08:52:55;91898.94;;;27.79;29.17
20628;BME280;10473;42.734;24.258;2023-10-19T08:55:23;91903.50;;;28.36;28.80
20628;BME280;10473;42.734;24.258;2023-10-19T08:57:52;91896.31;;;28.53;28.33
20628;BME280;10473;42.734;24.258;2023-10-19T09:00:20;91882.63;;;27.50;29.40
20628;BME280;10473;42.734;24.258;2023-10-19T09:02:51;91891.41;;;28.57;28.12
20628;BME280;10473;42.734;24.258;2023-10-19T09:05:20;91892.59;;;28.36;29.44
20628;BME280;10473;42.734;24.258;2023-10-19T09:07:49;91893.50;;;29.33;27.70
20628;BME280;10473;42.734;24.258;2023-10-19T09:10:24;91897.31;;;30.03;27.96
20628;BME280;10473;42.734;24.258;2023-10-19T09:12:59;91895.63;;;30.48;27.22
20628;BME280;10473;42.734;24.258;2023-10-19T09:15:28;91893.47;;;31.21;26.82
20628;BME280;10473;42.734;24.258;2023-10-19T09:17:59;91893.06;;;31.83;26.81
20628;BME280;10473;42.734;24.258;2023-10-19T09:20:39;91894.25;;;32.43;25.11
20628;BME280;10473;42.734;24.258;2023-10-19T09:23:08;91891.47;;;31.22;25.10
20628;BME280;10473;42.734;24.258;2023-10-19T09:25:38;91878.13;;;29.10;26.88
20628;BME280;10473;42.734;24.258;2023-10-19T09:28:06;91861.34;;;27.19;28.86
20628;BME280;10473;42.734;24.258;2023-10-19T09:30:37;91873.44;;;27.47;29.18
20628;BME280;10473;42.734;24.258;2023-10-19T09:33:05;91865.91;;;28.06;28.71
20628;BME280;10473;42.734;24.258;2023-10-19T09:35:34;91850.84;;;27.90;29.44
20628;BME280;10473;42.734;24.258;2023-10-19T09:38:03;91875.44;;;28.30;28.02
20628;BME280;10473;42.734;24.258;2023-10-19T09:40:32;91854.03;;;29.34;27.01
20628;BME280;10473;42.734;24.258;2023-10-19T09:43:04;91860.00;;;27.73;28.15
20628;BME280;10473;42.734;24.258;2023-10-19T09:45:37;91867.59;;;27.83;28.53
20628;BME280;10473;42.734;24.258;2023-10-19T09:48:09;91869.78;;;27.99;29.63
20628;BME280;10473;42.734;24.258;2023-10-19T09:50:44;91860.44;;;27.86;30.38
20628;BME280;10473;42.734;24.258;2023-10-19T09:53:14;91859.53;;;27.45;29.63
20628;BME280;10473;42.734;24.258;2023-10-19T09:55:44;91870.78;;;27.67;28.60
20628;BME280;10473;42.734;24.258;2023-10-19T09:58:16;91869.88;;;27.12;29.29
20628;BME280;10473;42.734;24.258;2023-10-19T10:00:45;91872.69;;;27.47;29.42
20628;BME280;10473;42.734;24.258;2023-10-19T10:03:43;91877.63;;;28.12;28.44
20628;BME280;10473;42.734;24.258;2023-10-19T10:06:12;91874.78;;;28.55;28.32
20628;BME280;10473;42.734;24.258;2023-10-19T10:08:41;91866.69;;;29.94;26.36
20628;BME280;10473;42.734;24.258;2023-10-19T10:11:20;91872.69;;;30.87;26.77
20628;BME280;10473;42.734;24.258;2023-10-19T10:13:50;91866.16;;;31.76;24.64
20628;BME280;10473;42.734;24.258;2023-10-19T10:16:20;91864.88;;;31.72;24.85
20628;BME280;10473;42.734;24.258;2023-10-19T10:18:50;91869.63;;;31.82;24.71
20628;BME280;10473;42.734;24.258;2023-10-19T10:21:19;91865.09;;;32.12;24.51
20628;BME280;10473;42.734;24.258;2023-10-19T10:23:49;91863.63;;;31.95;25.06
20628;BME280;10473;42.734;24.258;2023-10-19T10:26:21;91868.50;;;30.44;25.69
20628;BME280;10473;42.734;24.258;2023-10-19T10:29:10;91855.38;;;29.75;26.36
20628;BME280;10473;42.734;24.258;2023-10-19T10:31:47;91855.63;;;28.95;27.29
20628;BME280;10473;42.734;24.258;2023-10-19T10:34:44;91845.69;;;28.12;28.83
20628;BME280;10473;42.734;24.258;2023-10-19T10:37:14;91838.00;;;27.76;30.11
20628;BME280;10473;42.734;24.258;2023-10-19T10:39:41;91823.03;;;27.37;30.25
20628;BME280;10473;42.734;24.258;2023-10-19T10:42:10;91815.97;;;27.60;30.79
20628;BME280;10473;42.734;24.258;2023-10-19T10:44:40;91814.31;;;27.33;28.80
20628;BME280;10473;42.734;24.258;2023-10-19T10:47:10;91804.31;;;26.20;29.31
20628;BME280;10473;42.734;24.258;2023-10-19T10:49:51;91812.91;;;25.06;31.25
20628;BME280;10473;42.734;24.258;2023-10-19T10:52:24;91806.63;;;24.91;31.90
20628;BME280;10473;42.734;24.258;2023-10-19T10:54:52;91803.06;;;24.67;33.51
20628;BME280;10473;42.734;24.258;2023-10-19T10:57:20;91795.56;;;24.35;32.69
20628;BME280;10473;42.734;24.258;2023-10-19T11:00:02;91781.88;;;23.36;33.78
20628;BME280;10473;42.734;24.258;2023-10-19T11:02:31;91782.50;;;23.40;33.90
20628;BME280;10473;42.734;24.258;2023-10-19T11:04:59;91775.75;;;22.74;35.76
20628;BME280;10473;42.734;24.258;2023-10-19T11:07:27;91771.34;;;22.59;36.08
20628;BME280;10473;42.734;24.258;2023-10-19T11:09:56;91759.78;;;22.37;36.17
20628;BME280;10473;42.734;24.258;2023-10-19T11:12:23;91778.94;;;22.08;36.68
20628;BME280;10473;42.734;24.258;2023-10-19T11:14:52;91773.63;;;21.37;36.95
20628;BME280;10473;42.734;24.258;2023-10-19T11:17:22;91775.16;;;20.88;37.84
20628;BME280;10473;42.734;24.258;2023-10-19T11:19:55;91776.56;;;20.80;38.17
20628;BME280;10473;42.734;24.258;2023-10-19T11:22:23;91782.50;;;21.00;39.17
20628;BME280;10473;42.734;24.258;2023-10-19T11:24:53;91778.88;;;21.53;38.93
20628;BME280;10473;42.734;24.258;2023-10-19T11:27:25;91774.53;;;22.02;37.47
20628;BME280;10473;42.734;24.258;2023-10-19T11:29:56;91766.25;;;22.39;37.56
20628;BME280;10473;42.734;24.258;2023-10-19T11:32:25;91763.88;;;22.63;36.52
20628;BME280;10473;42.734;24.258;2023-10-19T11:34:54;91772.00;;;22.72;35.99
20628;BME280;10473;42.734;24.258;2023-10-19T11:37:22;91764.94;;;22.74;36.57
20628;BME280;10473;42.734;24.258;2023-10-19T11:39:50;91754.00;;;23.17;36.21
20628;BME280;10473;42.734;24.258;2023-10-19T11:42:18;91757.56;;;23.45;34.37
20628;BME280;10473;42.734;24.258;2023-10-19T11:44:47;91759.41;;;23.57;34.07
20628;BME280;10473;42.734;24.258;2023-10-19T11:47:19;91758.25;;;24.21;33.87
20628;BME280;10473;42.734;24.258;2023-10-19T11:49:48;91757.31;;;24.24;34.40
20628;BME280;10473;42.734;24.258;2023-10-19T11:52:16;91750.72;;;24.16;34.58
20628;BME280;10473;42.734;24.258;2023-10-19T11:54:45;91747.06;;;24.46;33.04
20628;BME280;10473;42.734;24.258;2023-10-19T11:57:13;91735.03;;;24.29;33.61
20628;BME280;10473;42.734;24.258;2023-10-19T11:59:41;91742.22;;;24.68;33.88
20628;BME280;10473;42.734;24.258;2023-10-19T12:02:08;91744.09;;;24.17;33.58
20628;BME280;10473;42.734;24.258;2023-10-19T12:04:37;91731.94;;;24.03;34.45
20628;BME280;10473;42.734;24.258;2023-10-19T12:07:06;91738.81;;;24.31;34.56
20628;BME280;10473;42.734;24.258;2023-10-19T12:09:35;91723.91;;;23.37;34.23
20628;BME280;10473;42.734;24.258;2023-10-19T12:12:03;91714.13;;;23.30;35.93
20628;BME280;10473;42.734;24.258;2023-10-19T12:14:32;91710.09;;;22.34;36.61
20628;BME280;10473;42.734;24.258;2023-10-19T12:17:00;91704.56;;;21.52;37.44
20628;BME280;10473;42.734;24.258;2023-10-19T12:19:29;91710.22;;;20.48;39.64
20628;BME280;10473;42.734;24.258;2023-10-19T12:21:57;91697.09;;;20.38;40.51
20628;BME280;10473;42.734;24.258;2023-10-19T12:24:26;91697.31;;;20.56;39.97
20628;BME280;10473;42.734;24.258;2023-10-19T12:26:55;91693.97;;;20.52;40.54
20628;BME280;10473;42.734;24.258;2023-10-19T12:29:22;91701.06;;;20.46;40.81
20628;BME280;10473;42.734;24.258;2023-10-19T12:31:51;91694.94;;;20.33;40.85
20628;BME280;10473;42.734;24.258;2023-10-19T12:34:19;91691.69;;;20.25;41.09
20628;BME280;10473;42.734;24.258;2023-10-19T12:36:48;91697.28;;;20.31;40.81
20628;BME280;10473;42.734;24.258;2023-10-19T12:39:18;91694.50;;;20.34;43.23
20628;BME280;10473;42.734;24.258;2023-10-19T12:42:01;91692.13;;;20.49;41.88
20628;BME280;10473;42.734;24.258;2023-10-19T12:44:29;91672.19;;;20.59;42.18
20628;BME280;10473;42.734;24.258;2023-10-19T12:47:05;91673.06;;;20.31;42.44
20628;BME280;10473;42.734;24.258;2023-10-19T12:49:35;91679.50;;;20.21;41.64
20628;BME280;10473;42.734;24.258;2023-10-19T12:52:03;91685.13;;;20.51;41.80
20628;BME280;10473;42.734;24.258;2023-10-19T12:54:33;91684.16;;;20.70;42.00
20628;BME280;10473;42.734;24.258;2023-10-19T12:57:03;91681.31;;;20.86;42.13
20628;BME280;10473;42.734;24.258;2023-10-19T12:59:33;91676.09;;;20.58;41.38
20628;BME280;10473;42.734;24.258;2023-10-19T13:02:03;91672.84;;;20.38;41.73
20628;BME280;10473;42.734;24.258;2023-10-19T13:04:31;91680.06;;;20.41;41.60
20628;BME280;10473;42.734;24.258;2023-10-19T13:06:58;91676.28;;;20.26;42.59